Home   Weather   Germany   Gelsenkirchen   Past weeks
Flag for Germany

Past Weather in Gelsenkirchen, North Rhine-Westphalia, Germany — Yesterday and Last 2 Weeks

Currently: 75 °F. Sunny. (Weather station: Duesseldorf, Germany). See more current weather

Past Weather in Gelsenkirchen — Graph

°F

Gelsenkirchen Temperature Yesterday

Maximum temperature yesterday: 79 °F (at 3:20 pm)
Minimum temperature yesterday: 50 °F (at 5:20 am)
Average temperature yesterday: 66 °F

High & Low Weather Summary for the Past Weeks

 TemperatureHumidityPressure
High91 °F (Aug 3, 3:20 pm)100% (Aug 5, 5:20 am)30.36 "Hg (Aug 5, 5:20 am)
Low48 °F (Aug 6, 5:50 am)28% (Aug 3, 5:50 pm)29.77 "Hg (Jul 25, 8:20 am)
Average70 °F61%30.06 "Hg
* Reported Jul 24 7:20 pm — Aug 8 7:50 pm, Gelsenkirchen. Weather by CustomWeather, © 2022

Note: Actual official high and low records may vary slightly from our data, if they occured in-between our weather recording intervals... More about our weather records

Gelsenkirchen Weather History for the Previous 24 Hours

Scroll right to see more
 ConditionsComfort  
Time TempWeatherWind HumidityBarometerVisibility
7:50 pm
Mon, Aug 8
77 °FSunny.13 mph39%30.24 "Hg10 mi
7:20 pm77 °FPassing clouds.13 mph39%30.24 "HgN/A
6:50 pm79 °FPassing clouds.9 mph37%30.24 "HgN/A
6:20 pm79 °FPassing clouds.9 mph37%30.24 "HgN/A
5:50 pm79 °FPassing clouds.10 mph37%30.24 "HgN/A
5:20 pm79 °FSunny.7 mph37%30.24 "Hg10 mi
4:50 pm79 °FSunny.13 mph37%30.24 "Hg10 mi
4:20 pm79 °FPassing clouds.12 mph37%30.24 "HgN/A
3:50 pm79 °FPassing clouds.12 mph39%30.24 "HgN/A
1:50 pm77 °FPassing clouds.9 mph39%30.27 "HgN/A
1:20 pm77 °FSunny.13 mph39%30.27 "Hg10 mi
12:20 pm75 °FPassing clouds.8 mph41%30.27 "HgN/A
11:50 am75 °FPassing clouds.9 mph41%30.27 "HgN/A
11:20 am73 °FPassing clouds.7 mph44%30.27 "HgN/A
10:50 am72 °FPassing clouds.8 mph47%30.27 "HgN/A
10:20 am70 °FPassing clouds.9 mph53%30.27 "HgN/A
9:50 am68 °FPassing clouds.7 mph56%30.27 "HgN/A
9:20 am66 °FSunny.6 mph60%30.27 "Hg10 mi
8:50 am64 °FSunny.9 mph64%30.27 "Hg10 mi
8:20 am61 °FSunny.6 mph72%30.27 "Hg10 mi
7:50 am59 °FSunny.5 mph77%30.24 "Hg10 mi
7:20 am57 °FSunny.2 mph82%30.24 "Hg10 mi
6:50 am55 °FSunny.2 mph82%30.24 "Hg10 mi
6:20 am55 °FSunny.2 mph82%30.24 "Hg10 mi
5:50 am55 °FClear.3 mph82%30.24 "Hg10 mi
5:20 am55 °FClear.1 mph82%30.24 "Hg10 mi
4:50 am55 °FClear.1 mph82%30.24 "Hg10 mi
4:20 am57 °FClear.6 mph77%30.24 "Hg10 mi
3:50 am57 °FClear.6 mph77%30.24 "Hg10 mi
3:20 am57 °FClear.6 mph77%30.24 "Hg10 mi
2:50 am59 °FClear.6 mph72%30.24 "Hg10 mi
1:20 am61 °FClear.5 mph68%30.24 "Hg10 mi
12:50 am63 °FClear.6 mph64%30.24 "Hg10 mi
12:20 am63 °FClear.6 mph64%30.24 "Hg10 mi
11:20 pm
Sun, Aug 7
63 °FClear.5 mph64%30.21 "Hg10 mi
10:50 pm64 °FClear.6 mph56%30.21 "Hg10 mi
10:20 pm66 °FClear.6 mph52%30.21 "Hg10 mi
9:50 pm70 °FClear.6 mph46%30.21 "Hg10 mi
9:20 pm72 °FClear.8 mph41%30.21 "Hg10 mi
Weather by CustomWeather, © 2022

See weather overview